Time;durP1;ratioP1;P1;durP2;ratioP2;P2;SDS_P1;SDS_P2;PMS_P1;PMS_P2;Temp;Humidity;BMP_temperature;BMP_pressure;BME280_temperature;BME280_humidity;BME280_pressure;Samples;Min_cycle;Max_cycle;Signal;HPM_P1;HPM_P2
2020/12/23 00:00:12;;;;;;;67.78;26.58;;;;;;;8.65;69.79;100362.16;4327542;33;33582;-87
2020/12/23 00:02:41;;;;;;;58.72;24.02;;;;;;;8.56;70.08;100369.44;4324352;33;32607;-85
2020/12/23 00:05:11;;;;;;;57.83;25.45;;;;;;;8.69;69.90;100370.84;4345045;33;32450;-85
2020/12/23 00:07:39;;;;;;;64.05;25.15;;;;;;;8.79;69.19;100372.31;4326845;33;33681;-86
2020/12/23 00:10:06;;;;;;;70.95;26.65;;;;;;;8.43;70.50;100363.63;4332587;33;33930;-86
2020/12/23 00:12:34;;;;;;;61.80;24.58;;;;;;;8.50;70.47;100366.94;4338755;33;34225;-86
2020/12/23 00:15:02;;;;;;;59.63;24.37;;;;;;;8.44;70.68;100366.19;4336220;33;34261;-86
2020/12/23 00:17:30;;;;;;;67.47;25.42;;;;;;;8.75;69.83;100365.41;4344192;33;32575;-86
2020/12/23 00:19:57;;;;;;;80.18;29.83;;;;;;;8.61;70.17;100357.88;4321513;33;33878;-86
2020/12/23 00:22:24;;;;;;;73.22;27.77;;;;;;;8.49;70.59;100354.69;4339211;33;33667;-86
2020/12/23 00:24:52;;;;;;;73.12;27.33;;;;;;;8.61;70.28;100365.78;4336995;33;33229;-85
2020/12/23 00:27:20;;;;;;;75.85;29.52;;;;;;;8.67;70.03;100355.06;4345126;33;33194;-85
2020/12/23 00:29:51;;;;;;;78.30;28.02;;;;;;;8.71;69.97;100343.56;4332781;33;32547;-85
2020/12/23 00:32:19;;;;;;;86.75;27.73;;;;;;;8.67;70.04;100346.31;4321126;33;33012;-86
2020/12/23 00:34:47;;;;;;;77.43;27.62;;;;;;;8.44;70.75;100342.50;4320868;33;32619;-86
2020/12/23 00:37:14;;;;;;;82.45;29.65;;;;;;;8.57;70.30;100331.66;4320741;33;32240;-86
2020/12/23 00:39:42;;;;;;;72.43;27.40;;;;;;;8.58;70.26;100329.00;4332975;33;34637;-86
2020/12/23 00:42:09;;;;;;;81.18;25.92;;;;;;;8.60;70.21;100328.97;4338497;33;34764;-85
2020/12/23 00:44:36;;;;;;;54.60;22.90;;;;;;;8.82;69.51;100319.53;4332826;33;33272;-85
2020/12/23 00:47:03;;;;;;;62.60;25.45;;;;;;;9.09;68.17;100324.94;4332833;33;34700;-85
2020/12/23 00:49:31;;;;;;;72.60;25.17;;;;;;;8.74;69.43;100326.81;4332805;33;34679;-85
2020/12/23 00:51:58;;;;;;;69.93;27.45;;;;;;;8.71;69.68;100326.91;4340933;33;34603;-85
2020/12/23 00:54:25;;;;;;;92.95;27.52;;;;;;;8.67;69.95;100325.25;4344958;33;33962;-85
2020/12/23 00:56:53;;;;;;;60.20;24.63;;;;;;;8.48;70.53;100331.91;4357243;32;33160;-85
2020/12/23 00:59:20;;;;;;;80.15;27.17;;;;;;;8.76;69.39;100342.56;4344835;33;33538;-86
2020/12/23 01:01:47;;;;;;;88.87;27.85;;;;;;;8.69;69.78;100333.97;4344848;33;32835;-86
2020/12/23 01:04:14;;;;;;;62.15;24.45;;;;;;;8.54;70.38;100335.22;4344995;33;34057;-85
2020/12/23 01:06:44;;;;;;;68.97;24.63;;;;;;;8.79;69.47;100343.34;4338341;33;32839;-83
2020/12/23 01:09:11;;;;;;;105.30;27.85;;;;;;;8.75;69.65;100331.19;4320509;33;34172;-83
2020/12/23 01:11:38;;;;;;;70.97;24.95;;;;;;;8.46;70.57;100340.72;4342117;32;33825;-83
2020/12/23 01:14:05;;;;;;;94.20;26.95;;;;;;;8.56;70.26;100341.34;4320666;33;33699;-83
2020/12/23 01:16:33;;;;;;;81.78;27.62;;;;;;;8.34;71.24;100333.09;4333565;33;33341;-83
2020/12/23 01:19:01;;;;;;;89.07;29.83;;;;;;;8.17;71.70;100332.69;4320461;33;32859;-83
2020/12/23 01:21:28;;;;;;;83.85;26.95;;;;;;;8.17;71.85;100330.94;4320402;33;33841;-84
2020/12/23 01:23:56;;;;;;;75.45;28.77;;;;;;;8.22;71.42;100325.53;4332704;33;33240;-84
2020/12/23 01:26:23;;;;;;;95.20;28.45;;;;;;;8.43;70.91;100334.66;4332514;33;33709;-84
2020/12/23 01:28:50;;;;;;;85.72;29.45;;;;;;;8.31;71.19;100337.56;4332501;33;33522;-84
2020/12/23 01:31:17;;;;;;;81.43;30.52;;;;;;;8.31;71.38;100337.56;4320365;33;33561;-84
2020/12/23 01:34:02;;;;;;;79.20;29.42;;;;;;;8.22;71.62;100336.06;4332638;33;34369;-84
2020/12/23 01:36:29;;;;;;;54.45;22.40;;;;;;;8.07;72.24;100352.22;4332217;33;34109;-84
2020/12/23 01:38:56;;;;;;;52.50;22.23;;;;;;;8.53;70.59;100346.69;4332347;33;33518;-84
2020/12/23 01:41:23;;;;;;;62.05;26.62;;;;;;;8.83;69.07;100339.72;4343829;33;33700;-84
2020/12/23 01:43:56;;;;;;;55.40;24.80;;;;;;;8.48;70.32;100340.66;4344508;33;33841;-84
2020/12/23 01:46:30;;;;;;;55.67;24.20;;;;;;;8.54;70.26;100327.34;4344521;33;33510;-84
2020/12/23 01:48:59;;;;;;;57.47;25.80;;;;;;;8.84;69.03;100333.56;4344313;33;34783;-84
2020/12/23 01:51:26;;;;;;;52.00;22.62;;;;;;;8.61;69.77;100335.94;4343927;33;34555;-84
2020/12/23 01:53:54;;;;;;;50.83;22.00;;;;;;;8.40;70.67;100325.09;4336196;33;33478;-84
2020/12/23 01:56:21;;;;;;;47.92;21.55;;;;;;;8.56;70.20;100322.06;4341044;33;33809;-84
2020/12/23 01:58:49;;;;;;;50.67;24.00;;;;;;;8.63;69.97;100323.59;4321919;33;33893;-82
2020/12/23 02:01:21;;;;;;;59.08;23.20;;;;;;;8.58;70.12;100336.03;4342296;33;32496;-83
2020/12/23 02:03:49;;;;;;;54.90;22.62;;;;;;;8.59;69.99;100328.09;4345836;33;33377;-83
2020/12/23 02:06:17;;;;;;;50.22;22.20;;;;;;;8.33;70.93;100318.22;4346021;33;34136;-82
2020/12/23 02:08:45;;;;;;;48.30;22.50;;;;;;;8.42;70.67;100325.06;4334818;33;33498;-83
2020/12/23 02:11:13;;;;;;;49.30;21.98;;;;;;;8.90;68.91;100321.97;4333850;33;34583;-82
2020/12/23 02:13:45;;;;;;;50.58;22.55;;;;;;;8.67;69.49;100325.25;4331222;33;32494;-82
2020/12/23 02:16:14;;;;;;;48.55;22.83;;;;;;;8.95;68.70;100328.84;4331394;33;33401;-82
2020/12/23 02:18:43;;;;;;;48.38;21.33;;;;;;;9.05;68.35;100320.66;4319088;33;32896;-83
2020/12/23 02:21:24;;;;;;;46.37;20.85;;;;;;;8.77;69.39;100325.84;4331310;33;34244;-83
2020/12/23 02:23:54;;;;;;;45.63;21.83;;;;;;;8.82;69.58;100316.06;4330993;33;34243;-83
2020/12/23 02:26:22;;;;;;;46.87;20.70;;;;;;;8.95;68.91;100315.66;4331156;33;34634;-83
2020/12/23 02:28:50;;;;;;;49.63;22.10;;;;;;;8.72;69.72;100318.09;4331029;33;32949;-83
2020/12/23 02:31:17;;;;;;;47.45;21.95;;;;;;;8.45;70.75;100319.69;4331233;33;33456;-83
2020/12/23 02:33:44;;;;;;;44.53;21.17;;;;;;;8.53;70.70;100311.59;4318895;33;33212;-83
2020/12/23 02:36:11;;;;;;;42.40;20.30;;;;;;;8.98;69.06;100305.06;4331104;33;33764;-82
2020/12/23 02:38:39;;;;;;;43.58;20.85;;;;;;;8.85;69.71;100313.34;4330810;33;33921;-84
2020/12/23 02:41:07;;;;;;;42.75;20.35;;;;;;;8.67;70.28;100320.84;4331028;33;34595;-83
2020/12/23 02:43:34;;;;;;;44.92;21.67;;;;;;;8.84;69.90;100328.28;4331196;33;33478;-83
2020/12/23 02:46:02;;;;;;;41.92;20.58;;;;;;;8.58;70.82;100325.50;4318810;33;33636;-83
2020/12/23 02:48:29;;;;;;;49.15;22.10;;;;;;;8.69;70.52;100319.03;4330985;33;34730;-84
2020/12/23 02:50:56;;;;;;;41.88;21.35;;;;;;;8.73;70.53;100314.53;4338561;33;32762;-82
2020/12/23 02:53:24;;;;;;;41.85;20.40;;;;;;;8.90;69.93;100317.56;4345677;33;33005;-82
2020/12/23 02:55:51;;;;;;;35.70;19.40;;;;;;;8.90;69.95;100322.84;4333498;33;33764;-82
2020/12/23 02:58:18;;;;;;;38.45;20.08;;;;;;;9.15;69.19;100322.97;4333524;33;33440;-82
2020/12/23 03:00:45;;;;;;;44.42;20.98;;;;;;;9.11;69.28;100316.06;4343146;33;33590;-83
2020/12/23 03:03:15;;;;;;;38.17;19.62;;;;;;;8.86;70.18;100313.28;4345284;33;33437;-82
2020/12/23 03:05:43;;;;;;;50.95;21.52;;;;;;;8.90;70.21;100316.72;4321764;33;33919;-83
2020/12/23 03:08:11;;;;;;;45.40;21.00;;;;;;;8.77;70.63;100310.91;4321380;33;33293;-82
2020/12/23 03:10:38;;;;;;;45.88;20.30;;;;;;;8.89;70.34;100312.34;4333443;33;33529;-82
2020/12/23 03:13:05;;;;;;;46.65;21.83;;;;;;;8.95;70.15;100305.13;4333320;33;33572;-82
2020/12/23 03:15:33;;;;;;;44.67;21.05;;;;;;;8.95;70.24;100305.13;4333458;33;33641;-82
2020/12/23 03:18:00;;;;;;;53.20;24.65;;;;;;;8.98;70.15;100306.81;4321273;33;34227;-82
2020/12/23 03:20:27;;;;;;;38.78;20.12;;;;;;;8.90;70.47;100314.94;4334483;33;34552;-82
2020/12/23 03:22:54;;;;;;;45.10;21.12;;;;;;;9.18;69.72;100314.13;4325155;33;33979;-82
2020/12/23 03:25:21;;;;;;;43.55;22.23;;;;;;;9.35;68.73;100314.50;4333319;33;33623;-82
2020/12/23 03:27:48;;;;;;;43.17;20.42;;;;;;;9.18;69.52;100316.78;4345417;33;33738;-82
2020/12/23 03:30:16;;;;;;;45.40;21.52;;;;;;;9.01;70.29;100308.50;4334392;33;33378;-82
2020/12/23 03:32:43;;;;;;;40.22;20.33;;;;;;;9.30;69.03;100311.13;4336769;33;33334;-82
2020/12/23 03:35:18;;;;;;;38.83;19.23;;;;;;;9.13;70.01;100298.47;4345425;33;33121;-81
2020/12/23 03:37:45;;;;;;;41.08;20.95;;;;;;;9.39;69.08;100302.06;4333307;33;33840;-82
2020/12/23 03:40:13;;;;;;;47.60;21.25;;;;;;;9.18;69.54;100300.97;4333281;33;32730;-82
2020/12/23 03:42:41;;;;;;;43.63;21.58;;;;;;;8.37;72.87;100319.91;4345404;33;32342;-82
2020/12/23 03:45:08;;;;;;;41.17;20.15;;;;;;;8.62;72.07;100317.47;4335973;33;33003;-82
2020/12/23 03:47:36;;;;;;;39.42;20.83;;;;;;;9.07;70.63;100311.81;4345367;33;34493;-83
2020/12/23 03:50:05;;;;;;;38.22;21.33;;;;;;;9.28;69.70;100317.34;4345371;33;33428;-82
2020/12/23 03:52:34;;;;;;;39.58;20.05;;;;;;;9.33;69.55;100310.19;4333443;33;32589;-83
2020/12/23 03:55:01;;;;;;;45.45;21.37;;;;;;;9.06;70.50;100306.59;4333052;33;32694;-82
2020/12/23 03:57:28;;;;;;;46.92;20.52;;;;;;;9.01;70.81;100311.13;4345168;33;34826;-82
2020/12/23 03:59:55;;;;;;;46.37;21.27;;;;;;;8.97;71.09;100305.06;4333093;33;33764;-82
2020/12/23 04:02:22;;;;;;;40.92;21.25;;;;;;;9.13;70.67;100302.88;4333105;33;32939;-82
2020/12/23 04:04:50;;;;;;;47.70;22.60;;;;;;;9.05;70.94;100294.31;4329494;33;34257;-82
2020/12/23 04:07:17;;;;;;;39.90;20.45;;;;;;;9.09;70.88;100291.56;4357439;32;34783;-82
2020/12/23 04:09:44;;;;;;;48.08;21.75;;;;;;;9.15;70.61;100286.09;4334319;33;33881;-82
2020/12/23 04:12:11;;;;;;;39.40;20.45;;;;;;;9.07;71.16;100287.22;4334213;33;34191;-82
2020/12/23 04:14:39;;;;;;;40.00;20.62;;;;;;;9.22;70.65;100277.13;4345231;33;33481;-82
2020/12/23 04:17:06;;;;;;;45.33;22.77;;;;;;;9.02;71.44;100278.59;4344568;33;32830;-82
2020/12/23 04:19:33;;;;;;;42.13;21.67;;;;;;;9.07;71.29;100271.41;4345122;33;33981;-82
2020/12/23 04:22:02;;;;;;;46.67;23.50;;;;;;;9.29;70.68;100267.22;4342112;33;32780;-82
2020/12/23 04:24:29;;;;;;;45.70;22.08;;;;;;;9.22;70.82;100265.72;4332837;33;32962;-83
2020/12/23 04:26:57;;;;;;;49.38;24.10;;;;;;;9.33;70.58;100263.59;4333096;33;33706;-83
2020/12/23 04:29:25;;;;;;;47.10;23.33;;;;;;;9.19;71.04;100265.78;4320975;33;33593;-83
2020/12/23 04:31:52;;;;;;;48.55;23.60;;;;;;;8.95;71.89;100263.00;4345098;33;33072;-82
2020/12/23 04:34:19;;;;;;;51.10;24.20;;;;;;;9.08;71.60;100267.91;4321064;33;33536;-82
2020/12/23 04:36:47;;;;;;;43.67;23.08;;;;;;;9.07;71.62;100266.16;4333056;33;33405;-82
2020/12/23 04:39:14;;;;;;;42.67;21.95;;;;;;;9.48;69.93;100273.66;4344815;33;34229;-83
2020/12/23 04:41:41;;;;;;;42.60;22.87;;;;;;;9.38;70.31;100274.84;4320878;33;33029;-82
2020/12/23 04:44:08;;;;;;;48.08;21.77;;;;;;;9.46;70.29;100275.50;4336293;33;33846;-82
2020/12/23 04:46:39;;;;;;;53.20;24.75;;;;;;;9.48;70.03;100278.91;4344978;33;33726;-82
2020/12/23 04:49:08;;;;;;;42.13;23.30;;;;;;;9.38;70.56;100284.53;4318643;33;32896;-82
2020/12/23 04:51:38;;;;;;;40.10;21.08;;;;;;;9.65;69.83;100282.81;4329901;33;33709;-82
2020/12/23 04:54:07;;;;;;;36.78;20.75;;;;;;;9.88;69.00;100276.78;4318165;33;32835;-82
2020/12/23 04:56:35;;;;;;;43.78;21.92;;;;;;;9.65;69.92;100281.03;4326229;33;33103;-82
2020/12/23 04:59:04;;;;;;;39.80;21.58;;;;;;;9.41;70.95;100281.81;4329011;33;33679;-82
2020/12/23 05:01:31;;;;;;;44.00;22.50;;;;;;;9.15;71.91;100279.97;4344651;33;33978;-81
2020/12/23 05:03:59;;;;;;;45.70;24.02;;;;;;;9.04;72.57;100288.19;4344499;33;32828;-82
2020/12/23 05:06:26;;;;;;;40.33;22.42;;;;;;;9.18;72.21;100279.88;4320513;33;33637;-82
2020/12/23 05:08:53;;;;;;;47.45;23.10;;;;;;;9.62;70.95;100280.25;4320536;33;33419;-82
2020/12/23 05:11:21;;;;;;;51.33;24.67;;;;;;;9.55;71.30;100284.03;4332562;33;34188;-82
2020/12/23 05:13:49;;;;;;;49.45;24.12;;;;;;;9.78;70.69;100281.50;4332529;33;34293;-83
2020/12/23 05:16:23;;;;;;;53.13;27.77;;;;;;;9.63;71.33;100264.37;4332954;33;34725;-83
2020/12/23 05:18:56;;;;;;;59.95;29.12;;;;;;;9.33;72.63;100262.75;4344728;33;32513;-83
2020/12/23 05:21:24;;;;;;;51.20;25.40;;;;;;;9.22;73.16;100268.34;4332551;33;32461;-83
2020/12/23 05:23:52;;;;;;;46.95;25.30;;;;;;;9.68;71.75;100259.81;4320444;33;33561;-83
2020/12/23 05:26:21;;;;;;;48.38;26.17;;;;;;;9.71;71.48;100269.41;4345986;32;32910;-84
2020/12/23 05:28:49;;;;;;;47.83;25.17;;;;;;;9.41;72.52;100290.59;4318347;33;34288;-83
2020/12/23 05:31:18;;;;;;;53.70;27.23;;;;;;;9.81;71.27;100281.37;4341035;33;32957;-83
2020/12/23 05:33:47;;;;;;;48.83;25.70;;;;;;;9.78;71.50;100288.53;4344498;32;33218;-83
2020/12/23 05:36:38;;;;;;;59.70;27.15;;;;;;;10.00;70.68;100279.88;4334409;33;33198;-83
2020/12/23 05:39:06;;;;;;;48.28;25.25;;;;;;;9.64;71.81;100276.69;4333709;33;34747;-83
2020/12/23 05:41:38;;;;;;;46.47;25.37;;;;;;;9.75;71.42;100269.28;4344354;33;33553;-83
2020/12/23 05:44:20;;;;;;;51.13;25.77;;;;;;;9.63;71.80;100288.13;4333518;33;34381;-82
2020/12/23 05:46:49;;;;;;;48.78;25.20;;;;;;;9.35;72.71;100277.59;4344147;33;33472;-83
2020/12/23 05:49:21;;;;;;;50.60;26.60;;;;;;;9.68;71.75;100274.78;4344197;33;34629;-82
2020/12/23 05:51:50;;;;;;;50.92;26.05;;;;;;;9.77;71.42;100266.56;4317649;33;32268;-83
2020/12/23 05:54:19;;;;;;;61.40;26.33;;;;;;;9.88;71.00;100255.69;4336428;33;34359;-83
2020/12/23 05:56:52;;;;;;;51.97;25.37;;;;;;;9.63;71.88;100253.84;4331905;33;33234;-83
2020/12/23 05:59:20;;;;;;;51.00;24.17;;;;;;;9.86;71.09;100253.09;4332087;33;33460;-83
2020/12/23 06:01:49;;;;;;;51.03;26.90;;;;;;;9.86;70.89;100252.22;4331994;33;32646;-83
2020/12/23 06:04:16;;;;;;;58.28;27.08;;;;;;;9.65;71.29;100267.00;4339802;33;33604;-84
2020/12/23 06:07:05;;;;;;;51.72;27.77;;;;;;;9.69;71.11;100260.72;4342801;33;33954;-83
2020/12/23 06:09:37;;;;;;;57.22;28.05;;;;;;;9.66;71.05;100260.81;4344182;33;33371;-83
2020/12/23 06:12:19;;;;;;;58.58;29.52;;;;;;;9.37;71.83;100249.41;4344323;33;33606;-83
2020/12/23 06:14:52;;;;;;;56.85;27.98;;;;;;;9.47;71.86;100261.37;4331835;33;32867;-83
2020/12/23 06:17:19;;;;;;;;;;;;;;;9.82;70.51;100261.16;4337110;33;34724;-83
2020/12/23 06:19:55;;;;;;;56.03;28.45;;;;;;;9.56;71.07;100259.38;4343950;33;33935;-83
2020/12/23 06:22:24;;;;;;;52.08;26.65;;;;;;;9.85;70.38;100251.38;4343531;33;33977;-82
2020/12/23 06:24:51;;;;;;;56.00;27.37;;;;;;;10.03;69.61;100270.13;4323995;33;34351;-82
2020/12/23 06:27:19;;;;;;;60.20;29.67;;;;;;;9.85;70.14;100271.59;4343427;33;33621;-82
2020/12/23 06:29:47;;;;;;;49.97;27.37;;;;;;;9.83;70.10;100278.72;4336746;33;34431;-83
2020/12/23 06:32:23;;;;;;;64.12;31.33;;;;;;;9.53;71.24;100276.12;4329534;33;33116;-83
2020/12/23 06:34:58;;;;;;;55.58;29.63;;;;;;;9.14;72.74;100272.97;4343749;33;33687;-82
2020/12/23 06:37:33;;;;;;;59.58;28.87;;;;;;;9.45;71.87;100263.22;4349376;32;34279;-83
2020/12/23 06:40:13;;;;;;;63.20;30.20;;;;;;;9.66;71.26;100258.16;4343680;33;33704;-82
2020/12/23 06:42:48;;;;;;;51.67;27.65;;;;;;;9.74;70.82;100245.59;4333575;33;33752;-82
2020/12/23 06:45:16;;;;;;;53.33;27.55;;;;;;;10.11;69.31;100233.78;4345462;33;33614;-83
2020/12/23 06:47:43;;;;;;;46.58;24.55;;;;;;;9.93;69.92;100237.94;4345867;33;34072;-82
2020/12/23 06:50:26;;;;;;;48.35;25.20;;;;;;;10.08;69.47;100247.09;4345835;33;32680;-82
2020/12/23 06:52:53;;;;;;;49.50;27.52;;;;;;;10.02;69.76;100242.91;4333401;33;32456;-82
2020/12/23 06:55:44;;;;;;;47.97;25.45;;;;;;;9.85;70.23;100256.66;4345658;33;33887;-83
2020/12/23 06:58:40;;;;;;;48.25;25.85;;;;;;;10.00;70.07;100269.31;4333608;33;34029;-83
2020/12/23 07:01:18;;;;;;;48.53;24.98;;;;;;;9.96;70.18;100270.31;4333431;33;33329;-83
2020/12/23 07:03:47;;;;;;;53.85;26.77;;;;;;;9.77;71.09;100269.22;4333323;33;32997;-83
2020/12/23 07:06:33;;;;;;;52.20;26.50;;;;;;;9.90;70.86;100270.53;4333674;33;33461;-82
2020/12/23 07:09:03;;;;;;;49.88;25.52;;;;;;;10.16;69.80;100266.12;4321339;33;33686;-83
2020/12/23 07:11:33;;;;;;;50.12;25.37;;;;;;;10.09;70.16;100260.22;4334452;33;34271;-83
2020/12/23 07:14:01;;;;;;;49.80;26.70;;;;;;;9.88;70.88;100247.78;4333624;33;33083;-83
2020/12/23 07:16:39;;;;;;;50.00;27.20;;;;;;;9.84;71.18;100247.00;4333399;33;33114;-83
2020/12/23 07:19:06;;;;;;;44.78;26.35;;;;;;;10.07;70.79;100245.38;4345542;33;33941;-83
2020/12/23 07:21:34;;;;;;;46.35;26.35;;;;;;;10.23;70.33;100247.41;4357478;32;33830;-83
2020/12/23 07:24:05;;;;;;;47.60;26.77;;;;;;;10.38;69.75;100242.53;4321411;33;33766;-83
2020/12/23 07:26:36;;;;;;;51.15;25.02;;;;;;;10.34;70.21;100247.06;4333157;33;33806;-83
2020/12/23 07:29:08;;;;;;;50.00;26.50;;;;;;;10.66;69.22;100250.31;4333456;33;33524;-83
2020/12/23 07:31:40;;;;;;;47.30;24.77;;;;;;;10.41;69.96;100251.22;4334159;33;34522;-83
2020/12/23 07:34:07;;;;;;;47.30;25.92;;;;;;;10.35;70.70;100245.28;4334261;33;33298;-82
2020/12/23 07:36:35;;;;;;;45.22;25.05;;;;;;;10.57;69.89;100240.09;4332947;33;33562;-83
2020/12/23 07:39:03;;;;;;;44.70;24.45;;;;;;;10.28;70.91;100247.28;4333277;33;33451;-82
2020/12/23 07:41:30;;;;;;;46.67;25.48;;;;;;;10.47;70.53;100239.56;4335118;33;33574;-83
2020/12/23 07:43:59;;;;;;;50.05;26.02;;;;;;;10.84;69.04;100241.72;4341569;33;33154;-83
2020/12/23 07:46:26;;;;;;;50.83;27.55;;;;;;;10.70;69.55;100251.94;4333115;33;33504;-82
2020/12/23 07:48:53;;;;;;;43.00;23.33;;;;;;;10.50;70.63;100245.59;4341042;33;33896;-82
2020/12/23 07:51:21;;;;;;;45.92;24.92;;;;;;;10.79;69.73;100235.75;4333201;33;33556;-83
2020/12/23 07:53:48;;;;;;;42.40;23.75;;;;;;;10.68;70.28;100249.38;4332324;33;34453;-83
2020/12/23 07:56:16;;;;;;;43.92;24.37;;;;;;;10.58;70.56;100234.75;4333108;33;34288;-83
2020/12/23 07:58:43;;;;;;;45.67;24.80;;;;;;;10.74;70.04;100233.28;4357439;32;33531;-83
2020/12/23 08:01:12;;;;;;;45.60;25.20;;;;;;;10.56;70.83;100222.53;4332989;33;34219;-83
2020/12/23 08:03:40;;;;;;;47.17;24.50;;;;;;;10.27;71.76;100236.78;4342633;33;33415;-83
2020/12/23 08:06:11;;;;;;;47.25;25.40;;;;;;;10.84;69.83;100233.78;4322005;33;33403;-83
2020/12/23 08:08:41;;;;;;;48.63;26.55;;;;;;;10.52;71.06;100232.34;4335016;33;33375;-86
2020/12/23 08:11:13;;;;;;;42.72;24.67;;;;;;;10.91;69.74;100229.12;4341225;33;33324;-86
2020/12/23 08:13:42;;;;;;;41.13;24.83;;;;;;;10.76;70.17;100238.50;4343432;33;33380;-85
2020/12/23 08:16:12;;;;;;;45.22;24.17;;;;;;;10.80;70.22;100248.03;4339320;33;33363;-86
2020/12/23 08:18:41;;;;;;;41.60;23.85;;;;;;;10.99;69.59;100238.47;4341797;33;34359;-88
2020/12/23 08:21:13;;;;;;;43.83;24.33;;;;;;;10.69;70.57;100242.28;4319269;33;33723;-87
2020/12/23 08:23:41;;;;;;;48.13;24.73;;;;;;;10.70;70.16;100238.72;4319131;33;33693;-86
2020/12/23 08:26:10;;;;;;;46.95;24.42;;;;;;;10.67;70.83;100246.75;4343319;33;33786;-86
2020/12/23 08:28:39;;;;;;;43.63;23.58;;;;;;;11.11;69.22;100241.56;4331129;33;33608;-87
2020/12/23 08:31:12;;;;;;;46.85;24.95;;;;;;;10.90;70.03;100246.75;4330682;33;33976;-87
2020/12/23 08:33:40;;;;;;;45.88;24.48;;;;;;;10.59;71.40;100252.34;4343100;33;32709;-88
2020/12/23 08:36:08;;;;;;;40.22;22.40;;;;;;;10.67;71.15;100249.41;4343392;33;34709;-88
2020/12/23 08:38:42;;;;;;;40.60;23.27;;;;;;;11.07;69.82;100245.28;4342747;33;33945;-87
2020/12/23 08:41:17;;;;;;;42.92;23.73;;;;;;;10.87;70.13;100238.97;4355483;32;34328;-90
2020/12/23 08:43:49;;;;;;;40.92;23.62;;;;;;;10.61;70.68;100239.94;4329545;33;33078;-88
2020/12/23 08:46:24;;;;;;;39.92;23.62;;;;;;;10.72;70.42;100239.53;4340045;33;33551;-88
2020/12/23 08:48:53;;;;;;;42.88;24.63;;;;;;;11.18;69.00;100243.06;4332220;33;33335;-87
2020/12/23 08:51:22;;;;;;;41.53;24.02;;;;;;;11.15;69.15;100237.88;4344540;32;33032;-88
2020/12/23 08:53:54;;;;;;;41.15;23.38;;;;;;;11.15;69.46;100243.16;4330025;32;32293;-88
2020/12/23 08:56:33;;;;;;;37.75;22.45;;;;;;;11.37;68.56;100249.34;4332604;33;33348;-89
2020/12/23 08:59:06;;;;;;;40.47;23.17;;;;;;;11.17;68.94;100238.69;4339003;32;33620;-88
2020/12/23 09:01:35;;;;;;;41.03;24.92;;;;;;;11.51;67.58;100240.84;4341122;32;32540;-89
2020/12/23 09:04:05;;;;;;;40.72;24.80;;;;;;;10.92;69.47;100234.38;4336021;32;33850;-88
2020/12/23 09:06:35;;;;;;;42.70;24.55;;;;;;;11.22;68.77;100226.16;4321646;33;32501;-89
2020/12/23 09:09:13;;;;;;;38.63;23.08;;;;;;;11.28;68.66;100231.19;4332972;33;34220;-89
2020/12/23 09:11:51;;;;;;;41.88;24.70;;;;;;;11.47;68.14;100223.37;4330009;33;33502;-88
2020/12/23 09:14:30;;;;;;;42.03;23.27;;;;;;;11.13;69.57;100231.81;4330051;33;33303;-89
2020/12/23 09:16:58;;;;;;;39.67;24.85;;;;;;;11.37;68.98;100227.34;4345140;32;34363;-89
2020/12/23 09:20:14;;;;;;;42.88;24.90;;;;;;;11.26;69.31;100217.19;4329583;33;32905;-89
2020/12/23 09:22:46;;;;;;;47.40;25.42;;;;;;;10.84;70.96;100211.81;4329745;33;32624;-89
2020/12/23 09:25:21;;;;;;;52.53;27.98;;;;;;;11.22;69.72;100197.94;4310811;33;32608;-89
2020/12/23 09:27:51;;;;;;;42.35;25.45;;;;;;;10.92;71.14;100194.75;4316885;33;33748;-89
2020/12/23 09:30:41;;;;;;;41.65;24.00;;;;;;;10.76;71.38;100199.72;4329638;33;34530;-89
2020/12/23 09:33:16;;;;;;;40.08;24.00;;;;;;;11.26;69.34;100178.41;4318425;33;33892;-89
2020/12/23 09:35:47;;;;;;;37.67;22.62;;;;;;;11.37;68.88;100191.19;4328924;33;32746;-89
2020/12/23 09:38:24;;;;;;;41.67;24.58;;;;;;;11.43;68.97;100190.06;4319786;33;33816;-89
2020/12/23 09:40:55;;;;;;;42.67;26.08;;;;;;;11.08;69.83;100178.28;4330147;33;34483;-89
2020/12/23 09:43:27;;;;;;;48.75;25.15;;;;;;;10.65;71.61;100179.94;4327493;33;32885;-91
2020/12/23 09:45:57;;;;;;;40.30;24.92;;;;;;;10.97;70.30;100162.84;4327209;33;32725;-91
2020/12/23 09:48:26;;;;;;;44.95;24.30;;;;;;;11.34;69.56;100170.13;4314454;33;33906;-91
2020/12/23 09:50:54;;;;;;;42.65;25.25;;;;;;;11.16;70.42;100155.91;4314927;33;32866;-91
2020/12/23 09:53:23;;;;;;;37.13;23.38;;;;;;;11.34;69.80;100149.00;4319640;33;33405;-91
2020/12/23 09:55:51;;;;;;;37.00;23.48;;;;;;;11.46;69.32;100148.50;4315956;33;33484;-91
2020/12/23 09:58:19;;;;;;;37.50;22.62;;;;;;;11.48;69.28;100146.63;4322844;33;32834;-91
2020/12/23 10:00:49;;;;;;;38.80;23.65;;;;;;;11.43;69.47;100143.31;4322750;33;33945;-89
2020/12/23 10:03:17;;;;;;;40.65;24.15;;;;;;;11.17;69.44;100143.56;4330336;33;32674;-87
2020/12/23 10:05:46;;;;;;;45.75;26.85;;;;;;;11.31;69.60;100137.72;4323066;33;32643;-87
2020/12/23 10:08:13;;;;;;;47.00;29.67;;;;;;;11.00;70.58;100144.22;4327760;33;33708;-86
2020/12/23 10:10:41;;;;;;;46.95;27.48;;;;;;;10.96;70.92;100138.19;4341098;33;33531;-86
2020/12/23 10:13:09;;;;;;;38.63;25.30;;;;;;;11.48;69.48;100127.25;4325512;33;33686;-88
2020/12/23 10:15:37;;;;;;;40.35;23.80;;;;;;;11.23;70.47;100130.06;4324292;33;32665;-88
2020/12/23 10:18:05;;;;;;;42.62;23.55;;;;;;;11.63;69.26;100136.34;4325671;33;33061;-87
2020/12/23 10:20:32;;;;;;;35.30;22.80;;;;;;;11.46;69.11;100132.63;4334299;33;34829;-88
2020/12/23 10:23:01;;;;;;;41.63;22.85;;;;;;;11.49;68.91;100124.56;4328759;33;33012;-87
2020/12/23 10:25:30;;;;;;;38.88;23.35;;;;;;;11.87;68.22;100116.81;4351286;32;32929;-87
2020/12/23 10:27:57;;;;;;;36.42;23.70;;;;;;;11.99;67.86;100105.66;4317245;33;33302;-87
2020/12/23 10:30:24;;;;;;;34.97;22.17;;;;;;;12.18;67.53;100105.69;4342183;33;32934;-87
2020/12/23 10:33:09;;;;;;;32.95;19.60;;;;;;;12.38;67.09;100106.56;4324926;33;33673;-87
2020/12/23 10:35:37;;;;;;;31.77;20.90;;;;;;;12.23;67.30;100100.19;4327861;33;32259;-86
2020/12/23 10:38:05;;;;;;;34.20;21.17;;;;;;;12.43;66.74;100084.22;4354221;32;33661;-88
2020/12/23 10:40:33;;;;;;;29.35;19.48;;;;;;;12.05;67.83;100080.69;4334734;33;33442;-86
2020/12/23 10:43:02;;;;;;;30.55;18.33;;;;;;;12.67;66.31;100098.09;4331423;33;34430;-86
2020/12/23 10:45:29;;;;;;;28.50;17.45;;;;;;;12.46;66.69;100083.25;4342631;32;32520;-87
2020/12/23 10:47:57;;;;;;;32.65;19.00;;;;;;;12.20;66.27;100087.09;4332572;33;33516;-87
2020/12/23 10:50:24;;;;;;;34.38;19.90;;;;;;;12.69;65.53;100079.50;4339763;32;34457;-87
2020/12/23 10:52:51;;;;;;;32.95;20.83;;;;;;;12.45;66.88;100068.28;4352454;32;34640;-87
2020/12/23 10:55:19;;;;;;;32.03;19.73;;;;;;;12.55;66.40;100073.06;4336003;33;34161;-87
2020/12/23 10:57:46;;;;;;;30.45;19.02;;;;;;;12.78;65.86;100069.31;4333207;33;32366;-87
2020/12/23 11:00:13;;;;;;;27.13;19.12;;;;;;;12.74;64.65;100067.75;4325210;33;34813;-87
2020/12/23 11:02:41;;;;;;;26.80;17.65;;;;;;;13.14;64.16;100067.59;4330880;33;32994;-86
2020/12/23 11:05:09;;;;;;;30.75;18.60;;;;;;;13.79;61.89;100058.06;4342421;33;34127;-87
2020/12/23 11:07:36;;;;;;;33.30;19.12;;;;;;;13.92;62.18;100063.59;4330365;33;34230;-87
2020/12/23 11:10:14;;;;;;;31.12;19.00;;;;;;;14.06;61.19;100061.06;4330337;33;34678;-87
2020/12/23 11:12:41;;;;;;;31.58;19.67;;;;;;;13.62;64.29;100050.13;4334676;33;33736;-87
2020/12/23 11:15:09;;;;;;;34.75;19.77;;;;;;;13.73;62.71;100045.13;4334460;33;32281;-87
2020/12/23 11:17:37;;;;;;;37.58;24.60;;;;;;;13.95;63.69;100037.72;4336214;33;34641;-87
2020/12/23 11:20:04;;;;;;;37.35;23.30;;;;;;;13.67;64.39;100027.72;4340753;33;33097;-88
2020/12/23 11:22:31;;;;;;;35.70;22.00;;;;;;;13.35;64.07;100024.13;4329127;33;32812;-87
2020/12/23 11:25:04;;;;;;;41.72;25.50;;;;;;;13.62;64.08;100023.59;4323240;33;33019;-87